sensor_id;sensor_type;location;lat;lon;timestamp;P1;durP1;ratioP1;P2;durP2;ratioP2
43154;SDS011;34212;51.018;13.586;2022-10-03T00:18:59;19.42;;;2.20;;
43154;SDS011;34212;51.018;13.586;2022-10-03T00:24:12;13.05;;;3.20;;
43154;SDS011;34212;51.018;13.586;2022-10-03T00:40:34;10.52;;;2.65;;
43154;SDS011;34212;51.018;13.586;2022-10-03T00:51:31;13.60;;;2.58;;
43154;SDS011;34212;51.018;13.586;2022-10-03T01:23:44;12.25;;;2.00;;
43154;SDS011;34212;51.018;13.586;2022-10-03T01:29:14;13.55;;;2.33;;
43154;SDS011;34212;51.018;13.586;2022-10-03T01:40:49;13.30;;;2.40;;
43154;SDS011;34212;51.018;13.586;2022-10-03T01:46:11;8.48;;;1.88;;
43154;SDS011;34212;51.018;13.586;2022-10-03T01:51:29;11.38;;;2.20;;
43154;SDS011;34212;51.018;13.586;2022-10-03T01:56:44;11.40;;;2.35;;
43154;SDS011;34212;51.018;13.586;2022-10-03T02:01:54;10.73;;;2.55;;
43154;SDS011;34212;51.018;13.586;2022-10-03T02:07:06;18.38;;;2.42;;
43154;SDS011;34212;51.018;13.586;2022-10-03T02:17:29;14.35;;;2.55;;
43154;SDS011;34212;51.018;13.586;2022-10-03T02:22:54;18.00;;;3.70;;
43154;SDS011;34212;51.018;13.586;2022-10-03T02:49:40;20.52;;;5.03;;
43154;SDS011;34212;51.018;13.586;2022-10-03T03:00:20;14.32;;;3.28;;
43154;SDS011;34212;51.018;13.586;2022-10-03T03:43:24;12.85;;;3.03;;
43154;SDS011;34212;51.018;13.586;2022-10-03T04:05:25;16.70;;;3.35;;
43154;SDS011;34212;51.018;13.586;2022-10-03T04:21:58;12.70;;;3.88;;
43154;SDS011;34212;51.018;13.586;2022-10-03T04:27:26;10.32;;;3.08;;
43154;SDS011;34212;51.018;13.586;2022-10-03T04:38:03;8.93;;;3.30;;
43154;SDS011;34212;51.018;13.586;2022-10-03T04:43:23;8.13;;;2.85;;
43154;SDS011;34212;51.018;13.586;2022-10-03T04:54:13;16.35;;;5.18;;
43154;SDS011;34212;51.018;13.586;2022-10-03T05:04:42;13.35;;;3.03;;
43154;SDS011;34212;51.018;13.586;2022-10-03T05:15:28;14.25;;;5.20;;
43154;SDS011;34212;51.018;13.586;2022-10-03T05:20:36;15.70;;;4.70;;
43154;SDS011;34212;51.018;13.586;2022-10-03T05:31:27;14.88;;;3.80;;
43154;SDS011;34212;51.018;13.586;2022-10-03T05:42:22;11.30;;;3.60;;
43154;SDS011;34212;51.018;13.586;2022-10-03T05:47:32;7.75;;;2.65;;
43154;SDS011;34212;51.018;13.586;2022-10-03T06:15:14;17.02;;;4.10;;
43154;SDS011;34212;51.018;13.586;2022-10-03T06:20:45;10.82;;;4.47;;
43154;SDS011;34212;51.018;13.586;2022-10-03T07:04:40;8.90;;;3.42;;
43154;SDS011;34212;51.018;13.586;2022-10-03T07:10:08;12.52;;;3.90;;
43154;SDS011;34212;51.018;13.586;2022-10-03T07:21:22;11.55;;;3.58;;
43154;SDS011;34212;51.018;13.586;2022-10-03T07:26:50;14.32;;;3.88;;
43154;SDS011;34212;51.018;13.586;2022-10-03T07:32:23;7.85;;;3.00;;
43154;SDS011;34212;51.018;13.586;2022-10-03T07:37:53;13.27;;;4.65;;
43154;SDS011;34212;51.018;13.586;2022-10-03T07:43:30;10.25;;;3.53;;
43154;SDS011;34212;51.018;13.586;2022-10-03T07:59:41;10.65;;;3.78;;
43154;SDS011;34212;51.018;13.586;2022-10-03T08:16:02;15.68;;;3.85;;
43154;SDS011;34212;51.018;13.586;2022-10-03T08:21:10;13.77;;;3.83;;
43154;SDS011;34212;51.018;13.586;2022-10-03T08:32:01;8.32;;;3.42;;
43154;SDS011;34212;51.018;13.586;2022-10-03T08:48:28;9.98;;;2.92;;
43154;SDS011;34212;51.018;13.586;2022-10-03T08:53:46;6.63;;;2.90;;
43154;SDS011;34212;51.018;13.586;2022-10-03T08:59:13;9.38;;;3.42;;
43154;SDS011;34212;51.018;13.586;2022-10-03T09:16:09;11.15;;;4.50;;
43154;SDS011;34212;51.018;13.586;2022-10-03T09:21:39;9.10;;;2.63;;
43154;SDS011;34212;51.018;13.586;2022-10-03T10:00:07;9.95;;;2.53;;
43154;SDS011;34212;51.018;13.586;2022-10-03T10:22:02;6.88;;;1.83;;
43154;SDS011;34212;51.018;13.586;2022-10-03T10:38:20;5.90;;;1.85;;
43154;SDS011;34212;51.018;13.586;2022-10-03T11:00:05;4.10;;;1.60;;
43154;SDS011;34212;51.018;13.586;2022-10-03T11:16:33;5.88;;;1.75;;
43154;SDS011;34212;51.018;13.586;2022-10-03T11:22:03;6.05;;;1.42;;
43154;SDS011;34212;51.018;13.586;2022-10-03T11:27:33;4.63;;;1.85;;
43154;SDS011;34212;51.018;13.586;2022-10-03T11:33:19;6.60;;;1.92;;
43154;SDS011;34212;51.018;13.586;2022-10-03T11:38:28;5.10;;;1.90;;
43154;SDS011;34212;51.018;13.586;2022-10-03T11:54:51;6.75;;;1.75;;
43154;SDS011;34212;51.018;13.586;2022-10-03T12:21:32;7.00;;;2.40;;
43154;SDS011;34212;51.018;13.586;2022-10-03T12:27:04;7.60;;;1.67;;
43154;SDS011;34212;51.018;13.586;2022-10-03T12:32:27;6.25;;;1.88;;
43154;SDS011;34212;51.018;13.586;2022-10-03T12:37:39;5.88;;;1.73;;
43154;SDS011;34212;51.018;13.586;2022-10-03T12:59:30;7.95;;;2.53;;
43154;SDS011;34212;51.018;13.586;2022-10-03T13:10:39;8.75;;;2.25;;
43154;SDS011;34212;51.018;13.586;2022-10-03T13:15:59;9.18;;;2.25;;
43154;SDS011;34212;51.018;13.586;2022-10-03T13:32:29;8.40;;;2.40;;
43154;SDS011;34212;51.018;13.586;2022-10-03T13:37:36;7.50;;;2.03;;
43154;SDS011;34212;51.018;13.586;2022-10-03T13:42:59;7.63;;;2.50;;
43154;SDS011;34212;51.018;13.586;2022-10-03T13:48:06;8.95;;;2.10;;
43154;SDS011;34212;51.018;13.586;2022-10-03T13:53:33;4.70;;;1.73;;
43154;SDS011;34212;51.018;13.586;2022-10-03T13:58:41;7.55;;;2.15;;
43154;SDS011;34212;51.018;13.586;2022-10-03T14:04:19;4.35;;;1.63;;
43154;SDS011;34212;51.018;13.586;2022-10-03T14:09:37;8.68;;;2.13;;
43154;SDS011;34212;51.018;13.586;2022-10-03T14:20:17;6.45;;;2.03;;
43154;SDS011;34212;51.018;13.586;2022-10-03T14:25:27;5.60;;;1.60;;
43154;SDS011;34212;51.018;13.586;2022-10-03T14:36:27;6.35;;;1.98;;
43154;SDS011;34212;51.018;13.586;2022-10-03T14:46:58;3.53;;;1.52;;
43154;SDS011;34212;51.018;13.586;2022-10-03T14:52:17;6.72;;;1.50;;
43154;SDS011;34212;51.018;13.586;2022-10-03T14:57:36;5.43;;;1.73;;
43154;SDS011;34212;51.018;13.586;2022-10-03T15:03:51;3.03;;;1.45;;
43154;SDS011;34212;51.018;13.586;2022-10-03T15:08:40;9.98;;;1.92;;
43154;SDS011;34212;51.018;13.586;2022-10-03T15:13:50;7.13;;;1.50;;
43154;SDS011;34212;51.018;13.586;2022-10-03T15:18:58;6.55;;;1.60;;
43154;SDS011;34212;51.018;13.586;2022-10-03T15:24:07;6.70;;;1.77;;
43154;SDS011;34212;51.018;13.586;2022-10-03T15:29:15;5.03;;;1.50;;
43154;SDS011;34212;51.018;13.586;2022-10-03T15:34:23;8.20;;;1.52;;
43154;SDS011;34212;51.018;13.586;2022-10-03T15:39:32;7.60;;;1.77;;
43154;SDS011;34212;51.018;13.586;2022-10-03T15:44:37;10.18;;;1.92;;
43154;SDS011;34212;51.018;13.586;2022-10-03T15:54:55;11.25;;;2.75;;
43154;SDS011;34212;51.018;13.586;2022-10-03T16:00:28;7.95;;;2.15;;
43154;SDS011;34212;51.018;13.586;2022-10-03T16:05:31;6.65;;;1.95;;
43154;SDS011;34212;51.018;13.586;2022-10-03T16:10:40;11.52;;;2.17;;
43154;SDS011;34212;51.018;13.586;2022-10-03T16:15:56;7.00;;;1.70;;
43154;SDS011;34212;51.018;13.586;2022-10-03T16:21:12;7.22;;;1.90;;
43154;SDS011;34212;51.018;13.586;2022-10-03T16:26:22;7.82;;;1.90;;
43154;SDS011;34212;51.018;13.586;2022-10-03T16:31:34;6.68;;;2.17;;
43154;SDS011;34212;51.018;13.586;2022-10-03T16:36:47;6.72;;;2.03;;
43154;SDS011;34212;51.018;13.586;2022-10-03T16:41:53;11.43;;;2.28;;
43154;SDS011;34212;51.018;13.586;2022-10-03T16:46:56;5.90;;;1.65;;
43154;SDS011;34212;51.018;13.586;2022-10-03T16:52:06;6.15;;;1.58;;
43154;SDS011;34212;51.018;13.586;2022-10-03T16:57:14;5.07;;;1.75;;
43154;SDS011;34212;51.018;13.586;2022-10-03T17:02:22;4.32;;;1.48;;
43154;SDS011;34212;51.018;13.586;2022-10-03T17:07:34;6.10;;;1.80;;
43154;SDS011;34212;51.018;13.586;2022-10-03T17:12:41;5.68;;;1.88;;
43154;SDS011;34212;51.018;13.586;2022-10-03T17:18:10;7.93;;;1.90;;
43154;SDS011;34212;51.018;13.586;2022-10-03T17:34:27;6.38;;;2.58;;
43154;SDS011;34212;51.018;13.586;2022-10-03T17:55:01;7.88;;;2.30;;
43154;SDS011;34212;51.018;13.586;2022-10-03T18:00:06;4.45;;;1.60;;
43154;SDS011;34212;51.018;13.586;2022-10-03T18:05:38;6.50;;;2.20;;
43154;SDS011;34212;51.018;13.586;2022-10-03T18:11:03;6.22;;;1.83;;
43154;SDS011;34212;51.018;13.586;2022-10-03T18:16:19;8.70;;;2.13;;
43154;SDS011;34212;51.018;13.586;2022-10-03T18:21:52;5.18;;;1.60;;
43154;SDS011;34212;51.018;13.586;2022-10-03T18:27:42;6.43;;;2.15;;
43154;SDS011;34212;51.018;13.586;2022-10-03T18:32:55;6.85;;;1.77;;
43154;SDS011;34212;51.018;13.586;2022-10-03T18:38:05;6.57;;;1.92;;
43154;SDS011;34212;51.018;13.586;2022-10-03T18:43:21;4.82;;;1.83;;
43154;SDS011;34212;51.018;13.586;2022-10-03T18:54:29;6.25;;;1.70;;
43154;SDS011;34212;51.018;13.586;2022-10-03T19:05:29;7.00;;;3.05;;
43154;SDS011;34212;51.018;13.586;2022-10-03T19:21:13;3.03;;;1.33;;
43154;SDS011;34212;51.018;13.586;2022-10-03T19:26:27;2.42;;;1.30;;
43154;SDS011;34212;51.018;13.586;2022-10-03T19:31:40;4.80;;;1.38;;
43154;SDS011;34212;51.018;13.586;2022-10-03T19:36:50;2.70;;;1.40;;
43154;SDS011;34212;51.018;13.586;2022-10-03T19:41:55;3.90;;;1.50;;
43154;SDS011;34212;51.018;13.586;2022-10-03T19:47:21;5.72;;;1.73;;
43154;SDS011;34212;51.018;13.586;2022-10-03T19:52:34;5.28;;;2.03;;
43154;SDS011;34212;51.018;13.586;2022-10-03T19:57:43;7.15;;;1.70;;
43154;SDS011;34212;51.018;13.586;2022-10-03T20:02:54;5.10;;;1.60;;
43154;SDS011;34212;51.018;13.586;2022-10-03T20:08:05;7.25;;;1.80;;
43154;SDS011;34212;51.018;13.586;2022-10-03T20:13:19;5.53;;;2.10;;
43154;SDS011;34212;51.018;13.586;2022-10-03T20:18:22;5.93;;;2.57;;
43154;SDS011;34212;51.018;13.586;2022-10-03T20:23:27;6.38;;;2.45;;
43154;SDS011;34212;51.018;13.586;2022-10-03T20:34:20;9.30;;;3.28;;
43154;SDS011;34212;51.018;13.586;2022-10-03T20:39:27;7.82;;;2.30;;
43154;SDS011;34212;51.018;13.586;2022-10-03T20:44:47;5.78;;;2.38;;
43154;SDS011;34212;51.018;13.586;2022-10-03T20:50:00;8.57;;;2.38;;
43154;SDS011;34212;51.018;13.586;2022-10-03T20:55:16;8.27;;;2.33;;
43154;SDS011;34212;51.018;13.586;2022-10-03T21:00:22;6.53;;;2.42;;
43154;SDS011;34212;51.018;13.586;2022-10-03T21:05:35;5.72;;;2.15;;
43154;SDS011;34212;51.018;13.586;2022-10-03T21:10:42;8.23;;;2.00;;
43154;SDS011;34212;51.018;13.586;2022-10-03T21:16:01;6.70;;;2.08;;
43154;SDS011;34212;51.018;13.586;2022-10-03T21:21:12;6.68;;;2.25;;
43154;SDS011;34212;51.018;13.586;2022-10-03T21:26:25;7.45;;;1.90;;
43154;SDS011;34212;51.018;13.586;2022-10-03T21:31:37;6.25;;;1.92;;
43154;SDS011;34212;51.018;13.586;2022-10-03T21:41:49;6.88;;;2.10;;
43154;SDS011;34212;51.018;13.586;2022-10-03T21:47:20;5.90;;;1.67;;
43154;SDS011;34212;51.018;13.586;2022-10-03T21:58:12;7.72;;;1.70;;
43154;SDS011;34212;51.018;13.586;2022-10-03T22:03:19;8.60;;;2.35;;
43154;SDS011;34212;51.018;13.586;2022-10-03T22:08:27;6.32;;;1.70;;
43154;SDS011;34212;51.018;13.586;2022-10-03T22:13:32;5.82;;;1.73;;
43154;SDS011;34212;51.018;13.586;2022-10-03T22:18:51;4.65;;;1.70;;
43154;SDS011;34212;51.018;13.586;2022-10-03T22:24:04;7.18;;;1.80;;
43154;SDS011;34212;51.018;13.586;2022-10-03T22:29:31;5.63;;;2.20;;
43154;SDS011;34212;51.018;13.586;2022-10-03T22:40:04;8.23;;;2.15;;
43154;SDS011;34212;51.018;13.586;2022-10-03T22:45:06;4.63;;;1.88;;
43154;SDS011;34212;51.018;13.586;2022-10-03T22:50:11;6.68;;;1.67;;
43154;SDS011;34212;51.018;13.586;2022-10-03T22:55:18;9.43;;;2.00;;
43154;SDS011;34212;51.018;13.586;2022-10-03T23:00:22;4.95;;;2.30;;
43154;SDS011;34212;51.018;13.586;2022-10-03T23:05:43;7.82;;;1.83;;
43154;SDS011;34212;51.018;13.586;2022-10-03T23:10:52;8.90;;;2.00;;
43154;SDS011;34212;51.018;13.586;2022-10-03T23:16:01;10.18;;;1.70;;
43154;SDS011;34212;51.018;13.586;2022-10-03T23:21:15;6.57;;;1.95;;
43154;SDS011;34212;51.018;13.586;2022-10-03T23:26:23;7.38;;;1.90;;
43154;SDS011;34212;51.018;13.586;2022-10-03T23:31:53;6.35;;;2.38;;
43154;SDS011;34212;51.018;13.586;2022-10-03T23:42:23;6.95;;;2.00;;
43154;SDS011;34212;51.018;13.586;2022-10-03T23:47:35;8.10;;;1.92;;
43154;SDS011;34212;51.018;13.586;2022-10-03T23:52:42;7.47;;;1.75;;
43154;SDS011;34212;51.018;13.586;2022-10-03T23:57:47;6.60;;;1.90;;
